createdAt,value
2022-10-07T00:03:41.959Z,99.90
2022-10-07T00:10:24.243Z,99.90
2022-10-07T00:17:06.560Z,99.90
2022-10-07T00:23:48.890Z,99.90
2022-10-07T00:30:31.369Z,99.90
2022-10-07T00:37:13.890Z,99.90
2022-10-07T00:43:59.662Z,99.90
2022-10-07T00:50:42.958Z,99.90
2022-10-07T00:57:29.504Z,99.90
2022-10-07T01:04:13.411Z,99.90
2022-10-07T01:11:19.197Z,99.90
2022-10-07T01:18:26.123Z,99.90
2022-10-07T01:25:32.447Z,99.90
2022-10-07T01:32:26.186Z,99.90
2022-10-07T01:39:14.070Z,99.90
2022-10-07T01:45:56.988Z,99.90
2022-10-07T01:53:00.531Z,99.90
2022-10-07T02:00:06.647Z,99.90
2022-10-07T02:07:12.303Z,99.90
2022-10-07T02:13:58.588Z,99.90
2022-10-07T02:20:48.372Z,99.90
2022-10-07T02:27:35.032Z,99.90
2022-10-07T02:34:20.953Z,99.90
2022-10-07T02:41:07.378Z,99.90
2022-10-07T02:47:55.696Z,99.90
2022-10-07T02:54:43.911Z,99.90
2022-10-07T03:01:30.655Z,99.90
2022-10-07T03:08:13.316Z,99.90
2022-10-07T03:14:58.265Z,99.90
2022-10-07T03:21:41.216Z,99.90
2022-10-07T03:28:26.486Z,99.90
2022-10-07T03:35:10.734Z,99.90
2022-10-07T03:41:53.876Z,99.90
2022-10-07T03:48:36.494Z,99.90
2022-10-07T03:55:19.555Z,99.90
2022-10-07T04:02:02.265Z,99.90
2022-10-07T04:08:45.051Z,99.90
2022-10-07T04:15:28.589Z,99.90
2022-10-07T04:22:11.303Z,99.90
2022-10-07T04:28:53.732Z,99.90
2022-10-07T04:35:40.108Z,99.90
2022-10-07T04:42:41.723Z,99.90
2022-10-07T04:49:25.163Z,99.90
2022-10-07T04:56:11.196Z,99.90
2022-10-07T05:02:53.619Z,99.90
2022-10-07T05:09:36.983Z,99.90
2022-10-07T05:16:19.673Z,99.90
2022-10-07T05:23:02.264Z,99.90
2022-10-07T05:29:44.858Z,99.90
2022-10-07T05:36:27.391Z,99.90
2022-10-07T05:43:13.738Z,99.90
2022-10-07T05:49:58.387Z,99.90
2022-10-07T05:56:40.945Z,99.90
2022-10-07T06:03:28.490Z,99.90
2022-10-07T06:10:31.182Z,99.90
2022-10-07T06:17:13.671Z,99.90
2022-10-07T06:24:00.466Z,99.90
2022-10-07T06:30:49.349Z,99.90
2022-10-07T06:37:32.711Z,99.90
2022-10-07T06:44:15.800Z,99.90
2022-10-07T06:51:04.135Z,99.90
2022-10-07T06:57:48.458Z,99.90
2022-10-07T07:04:34.665Z,99.90
2022-10-07T07:11:36.813Z,99.90
2022-10-07T07:18:26.796Z,99.90
2022-10-07T07:25:12.571Z,99.90
2022-10-07T07:31:55.505Z,98.50
2022-10-07T07:38:40.832Z,95.70
2022-10-07T07:45:24.914Z,94.70
2022-10-07T07:52:07.765Z,92.30
2022-10-07T07:58:56.207Z,92.40
2022-10-07T08:05:38.774Z,91.40
2022-10-07T08:19:07.599Z,88.70
2022-10-07T08:25:55.268Z,90.80
2022-10-07T08:32:37.765Z,90.20
2022-10-07T08:39:20.091Z,90.20
2022-10-07T08:46:04.301Z,89.10
2022-10-07T08:53:02.977Z,87.60
2022-10-07T08:59:51.172Z,86.30
2022-10-07T09:06:38.672Z,87.30
2022-10-07T09:13:24.848Z,86.50
2022-10-07T09:20:26.181Z,86.30
2022-10-07T09:27:15.842Z,87.60
2022-10-07T09:33:58.218Z,87.20
2022-10-07T09:41:02.907Z,88.40
2022-10-07T09:47:55.378Z,88.60
2022-10-07T09:54:37.927Z,88.90
2022-10-07T10:01:21.050Z,90.10
2022-10-07T10:08:14.026Z,89.20
2022-10-07T10:14:59.556Z,89.30
2022-10-07T10:21:42.238Z,89.50
2022-10-07T10:28:49.753Z,90.50
2022-10-07T10:35:39.408Z,91.50
2022-10-07T10:42:32.482Z,93.30
2022-10-07T10:49:43.439Z,95.90
2022-10-07T10:56:48.038Z,98.20
2022-10-07T11:03:39.332Z,99.60
2022-10-07T11:10:25.558Z,99.90
2022-10-07T11:17:11.567Z,99.90
2022-10-07T11:24:05.976Z,99.90
2022-10-07T11:31:15.685Z,99.90
2022-10-07T11:38:00.789Z,99.90
2022-10-07T11:44:54.475Z,99.90
2022-10-07T11:51:45.735Z,99.90
2022-10-07T11:58:38.771Z,99.90
2022-10-07T12:05:36.254Z,99.90
2022-10-07T12:12:23.409Z,99.90
2022-10-07T12:19:10.372Z,99.90
2022-10-07T12:26:13.013Z,99.90
2022-10-07T12:32:56.946Z,99.90
2022-10-07T12:39:42.368Z,99.90
2022-10-07T12:46:29.159Z,99.90
2022-10-07T12:53:12.399Z,99.90
2022-10-07T13:00:02.040Z,99.90
2022-10-07T13:07:17.898Z,99.90
2022-10-07T13:14:20.123Z,99.90
2022-10-07T13:21:25.384Z,99.90
2022-10-07T13:28:13.694Z,99.90
2022-10-07T13:34:57.915Z,99.90
2022-10-07T13:41:44.671Z,99.90
2022-10-07T13:48:34.446Z,99.90
2022-10-07T13:55:33.725Z,99.90
2022-10-07T14:02:16.776Z,99.90
2022-10-07T14:08:59.468Z,99.90
2022-10-07T14:15:51.928Z,99.90
2022-10-07T14:22:41.110Z,99.90
2022-10-07T14:29:35.443Z,99.90
2022-10-07T14:36:20.731Z,99.90
2022-10-07T14:43:04.519Z,99.90
2022-10-07T14:49:47.938Z,99.90
2022-10-07T14:56:32.790Z,99.90
2022-10-07T15:03:15.359Z,99.90
2022-10-07T15:09:57.714Z,99.90
2022-10-07T15:16:41.758Z,99.90
2022-10-07T15:23:24.263Z,99.90
2022-10-07T15:30:07.528Z,99.90
2022-10-07T15:36:50.195Z,99.90
2022-10-07T15:43:34.127Z,99.90
2022-10-07T15:50:16.641Z,99.90
2022-10-07T15:56:58.979Z,99.90
2022-10-07T16:03:47.896Z,99.90
2022-10-07T16:10:30.424Z,99.90
2022-10-07T16:17:13.228Z,99.90
2022-10-07T16:24:01.828Z,99.90
2022-10-07T16:30:49.900Z,99.90
2022-10-07T16:37:34.210Z,99.90
2022-10-07T16:44:16.568Z,99.90
2022-10-07T16:50:59.335Z,99.90
2022-10-07T16:57:41.632Z,99.90
2022-10-07T17:04:25.181Z,99.90
2022-10-07T17:11:31.456Z,99.90
2022-10-07T17:18:15.298Z,99.90
2022-10-07T17:24:58.066Z,99.90
2022-10-07T17:31:43.157Z,99.90
2022-10-07T17:38:33.809Z,99.90
2022-10-07T17:45:16.176Z,99.90
2022-10-07T17:51:58.508Z,99.90
2022-10-07T17:58:43.017Z,99.90
2022-10-07T18:05:26.349Z,99.90
2022-10-07T18:12:27.269Z,99.90
2022-10-07T18:19:09.767Z,99.90
2022-10-07T18:25:52.099Z,99.90
2022-10-07T18:32:34.659Z,99.90
2022-10-07T18:39:16.968Z,99.90
2022-10-07T18:46:08.047Z,99.90
2022-10-07T18:52:50.522Z,99.90
2022-10-07T18:59:32.869Z,99.90
2022-10-07T19:06:20.775Z,99.90
2022-10-07T19:13:21.538Z,99.90
2022-10-07T19:20:04.724Z,99.90
2022-10-07T19:26:49.873Z,99.90
2022-10-07T19:33:34.045Z,99.90
2022-10-07T19:40:16.471Z,99.90
2022-10-07T19:47:00.664Z,99.90
2022-10-07T19:53:47.009Z,99.90
2022-10-07T20:00:30.873Z,99.90
2022-10-07T20:07:13.306Z,99.90
2022-10-07T20:13:55.702Z,99.90
2022-10-07T20:20:38.002Z,99.90
2022-10-07T20:27:21.542Z,99.90
2022-10-07T20:34:05.719Z,99.90
2022-10-07T20:41:11.244Z,99.90
2022-10-07T20:47:55.798Z,99.90
2022-10-07T20:54:38.151Z,99.90
2022-10-07T21:01:20.523Z,99.90
2022-10-07T21:08:02.981Z,99.90
2022-10-07T21:14:48.065Z,99.90
2022-10-07T21:21:30.831Z,99.90
2022-10-07T21:28:14.539Z,99.90
2022-10-07T21:34:57.344Z,99.90
2022-10-07T21:41:40.680Z,99.90
2022-10-07T21:48:23.027Z,99.90
2022-10-07T21:55:05.563Z,99.90
2022-10-07T22:01:48.301Z,99.90
2022-10-07T22:08:36.415Z,99.90
2022-10-07T22:15:19.980Z,99.90
2022-10-07T22:22:02.295Z,99.90
2022-10-07T22:28:46.659Z,99.90
2022-10-07T22:35:30.505Z,99.90
2022-10-07T22:42:12.945Z,99.90
2022-10-07T22:48:57.775Z,99.90
2022-10-07T22:55:40.291Z,99.90
2022-10-07T23:02:22.917Z,99.90
2022-10-07T23:09:05.623Z,99.90
2022-10-07T23:16:02.661Z,99.90
2022-10-07T23:22:45.520Z,99.90
2022-10-07T23:29:29.881Z,99.90
2022-10-07T23:36:12.264Z,99.90
2022-10-07T23:42:54.914Z,99.90
2022-10-07T23:49:37.246Z,99.90
2022-10-07T23:56:19.978Z,99.90
